createdAt,value
2022-12-17T00:03:29.403Z,11.48
2022-12-17T00:07:50.059Z,12.20
2022-12-17T00:12:12.509Z,9.80
2022-12-17T00:16:35.131Z,11.10
2022-12-17T00:20:55.772Z,12.57
2022-12-17T00:25:17.109Z,15.57
2022-12-17T00:29:38.213Z,14.15
2022-12-17T00:33:58.749Z,13.88
2022-12-17T00:38:19.316Z,12.68
2022-12-17T00:42:39.783Z,13.98
2022-12-17T00:47:00.381Z,13.55
2022-12-17T00:51:21.141Z,14.57
2022-12-17T00:55:42.002Z,13.15
2022-12-17T01:00:02.487Z,11.10
2022-12-17T01:04:23.559Z,9.90
2022-12-17T01:08:44.091Z,7.93
2022-12-17T01:13:04.921Z,6.95
2022-12-17T01:17:25.478Z,6.72
2022-12-17T01:21:46.876Z,7.65
2022-12-17T01:26:14.906Z,7.07
2022-12-17T01:30:35.814Z,6.70
2022-12-17T01:34:57.178Z,8.40
2022-12-17T01:39:17.609Z,7.70
2022-12-17T01:43:54.793Z,8.00
2022-12-17T01:52:41.215Z,9.98
2022-12-17T01:57:02.327Z,5.82
2022-12-17T02:01:23.206Z,6.53
2022-12-17T02:05:56.831Z,5.50
2022-12-17T02:10:38.713Z,5.40
2022-12-17T02:15:40.533Z,4.63
2022-12-17T02:20:47.711Z,6.43
2022-12-17T02:25:17.603Z,5.97
2022-12-17T02:29:42.155Z,6.82
2022-12-17T02:34:03.446Z,6.65
2022-12-17T02:38:41.934Z,6.85
2022-12-17T02:43:05.210Z,5.72
2022-12-17T02:47:29.875Z,6.07
2022-12-17T02:51:50.767Z,5.85
2022-12-17T02:56:11.504Z,5.35
2022-12-17T03:00:33.215Z,5.38
2022-12-17T03:04:54.234Z,4.82
2022-12-17T03:09:15.004Z,5.70
2022-12-17T03:13:43.538Z,6.50
2022-12-17T03:18:04.504Z,5.75
2022-12-17T03:22:26.026Z,6.70
2022-12-17T03:26:46.743Z,4.72
2022-12-17T03:31:07.497Z,4.50
2022-12-17T03:35:28.312Z,5.72
2022-12-17T03:39:48.981Z,5.07
2022-12-17T03:44:09.413Z,4.95
2022-12-17T03:48:33.621Z,4.72
2022-12-17T03:52:54.357Z,4.93
2022-12-17T03:57:16.391Z,5.28
2022-12-17T04:01:37.268Z,5.75
2022-12-17T04:05:58.060Z,6.10
2022-12-17T04:10:18.505Z,6.28
2022-12-17T04:14:39.082Z,9.90
2022-12-17T04:18:59.466Z,8.98
2022-12-17T04:23:19.919Z,15.10
2022-12-17T04:27:40.428Z,15.68
2022-12-17T04:32:00.881Z,15.82
2022-12-17T04:36:21.292Z,15.23
2022-12-17T04:40:42.025Z,15.43
2022-12-17T04:45:03.068Z,15.23
2022-12-17T04:49:23.492Z,16.70
2022-12-17T04:53:44.090Z,16.27
2022-12-17T04:58:04.567Z,14.02
2022-12-17T05:02:25.017Z,10.25
2022-12-17T05:06:45.970Z,10.27
2022-12-17T05:11:07.126Z,10.02
2022-12-17T05:15:27.889Z,8.32
2022-12-17T05:19:48.680Z,9.77
2022-12-17T05:24:09.215Z,9.60
2022-12-17T05:28:29.466Z,8.70
2022-12-17T05:32:50.218Z,8.77
2022-12-17T05:37:10.711Z,7.22
2022-12-17T05:41:31.276Z,5.43
2022-12-17T05:45:52.065Z,6.47
2022-12-17T05:50:12.882Z,8.48
2022-12-17T05:54:33.273Z,7.93
2022-12-17T05:58:53.746Z,6.30
2022-12-17T06:03:22.393Z,6.75
2022-12-17T06:07:43.370Z,7.15
2022-12-17T06:12:03.970Z,9.60
2022-12-17T06:16:27.535Z,8.75
2022-12-17T06:20:48.156Z,6.13
2022-12-17T06:25:08.745Z,7.65
2022-12-17T06:29:29.479Z,9.55
2022-12-17T06:33:49.854Z,11.90
2022-12-17T06:38:22.061Z,13.85
2022-12-17T06:42:42.764Z,13.18
2022-12-17T06:47:03.578Z,15.02
2022-12-17T06:51:24.318Z,14.95
2022-12-17T06:55:44.966Z,13.65
2022-12-17T07:00:05.608Z,13.45
2022-12-17T07:04:26.508Z,12.85
2022-12-17T07:08:47.306Z,16.83
2022-12-17T07:13:07.733Z,18.40
2022-12-17T07:17:28.128Z,24.55
2022-12-17T07:21:48.975Z,30.67
2022-12-17T07:26:09.351Z,32.15
2022-12-17T07:30:31.207Z,26.52
2022-12-17T07:34:51.968Z,31.23
2022-12-17T07:39:12.293Z,30.27
2022-12-17T07:43:34.051Z,36.08
2022-12-17T07:47:54.824Z,48.00
2022-12-17T07:52:15.223Z,55.65
2022-12-17T07:56:36.175Z,45.13
2022-12-17T08:00:56.619Z,45.65
2022-12-17T08:05:17.375Z,38.03
2022-12-17T08:09:37.883Z,35.72
2022-12-17T08:13:58.855Z,36.15
2022-12-17T08:18:26.058Z,37.22
2022-12-17T08:22:47.250Z,31.38
2022-12-17T08:27:07.796Z,23.55
2022-12-17T08:31:28.258Z,27.00
2022-12-17T08:35:48.737Z,28.15
2022-12-17T08:40:09.131Z,37.33
2022-12-17T08:44:29.527Z,26.13
2022-12-17T08:48:49.894Z,25.92
2022-12-17T08:53:18.491Z,22.75
2022-12-17T08:57:38.913Z,25.77
2022-12-17T09:01:59.844Z,22.30
2022-12-17T09:06:20.773Z,21.65
2022-12-17T09:10:41.244Z,31.63
2022-12-17T09:15:03.518Z,24.65
2022-12-17T09:19:24.141Z,21.67
2022-12-17T09:23:44.716Z,23.45
2022-12-17T09:28:05.476Z,25.98
2022-12-17T09:32:26.061Z,21.55
2022-12-17T09:36:51.059Z,17.70
2022-12-17T09:41:11.786Z,12.93
2022-12-17T09:45:36.891Z,10.20
2022-12-17T09:49:57.911Z,11.75
2022-12-17T09:54:18.587Z,8.40
2022-12-17T09:58:42.077Z,9.85
2022-12-17T10:03:03.432Z,9.43
2022-12-17T10:07:32.004Z,10.70
2022-12-17T10:11:53.859Z,9.63
2022-12-17T10:16:14.634Z,10.10
2022-12-17T10:21:02.448Z,8.38
2022-12-17T10:25:40.290Z,9.65
2022-12-17T10:30:02.707Z,11.50
2022-12-17T10:34:32.486Z,10.52
2022-12-17T10:38:53.007Z,10.57
2022-12-17T10:43:13.449Z,13.68
2022-12-17T10:47:36.663Z,12.85
2022-12-17T10:51:57.414Z,11.52
2022-12-17T10:56:19.097Z,10.57
2022-12-17T11:00:59.061Z,11.52
2022-12-17T11:05:21.869Z,14.82
2022-12-17T11:09:48.550Z,16.02
2022-12-17T11:14:10.930Z,15.85
2022-12-17T11:18:38.715Z,13.57
2022-12-17T11:23:06.771Z,14.15
2022-12-17T11:27:34.767Z,13.38
2022-12-17T11:32:17.091Z,12.80
2022-12-17T11:36:47.790Z,13.02
2022-12-17T11:41:14.435Z,13.13
2022-12-17T11:45:34.754Z,16.10
2022-12-17T11:50:14.382Z,14.68
2022-12-17T11:54:41.328Z,16.45
2022-12-17T11:59:17.343Z,12.80
2022-12-17T12:04:08.858Z,15.48
2022-12-17T12:08:44.789Z,14.55
2022-12-17T12:13:12.286Z,18.38
2022-12-17T12:22:30.818Z,13.30
2022-12-17T12:27:02.852Z,14.98
2022-12-17T12:31:49.773Z,14.93
2022-12-17T12:36:16.053Z,13.60
2022-12-17T12:41:00.924Z,15.25
2022-12-17T12:45:44.582Z,15.95
2022-12-17T12:50:13.098Z,18.75
2022-12-17T12:55:08.642Z,13.68
2022-12-17T12:59:50.868Z,19.02
2022-12-17T13:04:13.874Z,18.58
2022-12-17T13:08:23.319Z,15.38
2022-12-17T13:12:33.070Z,13.38
2022-12-17T13:16:52.361Z,19.05
2022-12-17T13:21:04.309Z,15.00
2022-12-17T13:25:18.133Z,19.42
2022-12-17T13:29:37.144Z,14.10
2022-12-17T13:34:07.299Z,19.10
2022-12-17T13:38:26.984Z,13.02
2022-12-17T13:42:32.497Z,14.13
2022-12-17T13:46:47.555Z,12.68
2022-12-17T13:51:01.808Z,14.70
2022-12-17T13:55:18.696Z,14.93
2022-12-17T13:59:25.180Z,14.98
2022-12-17T14:07:50.889Z,16.58
2022-12-17T14:12:11.638Z,15.77
2022-12-17T14:16:18.688Z,14.57
2022-12-17T14:20:24.738Z,25.40
2022-12-17T14:24:29.230Z,27.57
2022-12-17T14:28:35.271Z,23.90
2022-12-17T14:32:37.529Z,23.60
2022-12-17T14:36:42.518Z,26.05
2022-12-17T14:40:44.592Z,22.38
2022-12-17T14:44:54.138Z,21.80
2022-12-17T14:49:00.664Z,31.15
2022-12-17T14:53:23.267Z,23.30
2022-12-17T14:57:25.302Z,25.67
2022-12-17T15:01:27.419Z,23.60
2022-12-17T15:05:29.610Z,21.17
2022-12-17T15:09:36.485Z,21.90
2022-12-17T15:17:40.555Z,24.98
2022-12-17T15:21:43.729Z,34.80
2022-12-17T15:25:48.397Z,20.17
2022-12-17T15:29:50.455Z,29.30
2022-12-17T15:33:52.523Z,28.85
2022-12-17T15:37:54.542Z,20.73
2022-12-17T15:42:14.933Z,19.08
2022-12-17T15:46:17.461Z,25.02
2022-12-17T15:50:19.606Z,27.42
2022-12-17T15:54:21.605Z,31.45
2022-12-17T15:58:23.624Z,25.75
2022-12-17T16:02:25.785Z,26.92
2022-12-17T16:06:28.015Z,34.00
2022-12-17T16:10:30.274Z,46.83
2022-12-17T16:14:32.875Z,36.53
2022-12-17T16:18:36.416Z,24.48
2022-12-17T16:22:38.797Z,24.45
2022-12-17T16:26:41.322Z,20.45
2022-12-17T16:30:43.510Z,21.13
2022-12-17T16:34:45.631Z,21.50
2022-12-17T16:38:50.723Z,21.75
2022-12-17T16:42:52.775Z,25.50
2022-12-17T16:46:54.949Z,18.80
2022-12-17T16:50:57.842Z,20.40
2022-12-17T16:54:59.874Z,18.63
2022-12-17T16:59:04.885Z,37.75
2022-12-17T17:03:08.307Z,38.60
2022-12-17T17:07:10.437Z,54.40
2022-12-17T17:11:21.492Z,35.85
2022-12-17T17:15:23.920Z,42.40
2022-12-17T17:19:25.932Z,96.03
2022-12-17T17:23:27.935Z,32.30
2022-12-17T17:27:29.921Z,25.70
2022-12-17T17:32:08.704Z,40.72
2022-12-17T17:35:57.463Z,27.08
2022-12-17T17:40:03.186Z,22.35
2022-12-17T17:44:07.995Z,21.00
2022-12-17T17:48:10.015Z,17.05
2022-12-17T17:52:12.382Z,21.83
2022-12-17T17:56:25.787Z,22.90
2022-12-17T18:00:27.830Z,26.48
2022-12-17T18:04:30.726Z,24.55
2022-12-17T18:08:35.014Z,25.88
2022-12-17T18:12:56.051Z,21.67
2022-12-17T18:16:58.159Z,23.25
2022-12-17T18:21:12.503Z,27.40
2022-12-17T18:25:16.759Z,23.85
2022-12-17T18:29:23.344Z,28.45
2022-12-17T18:33:25.500Z,36.35
2022-12-17T18:37:27.552Z,32.65
2022-12-17T18:41:48.280Z,30.45
2022-12-17T18:45:51.825Z,26.42
2022-12-17T18:49:55.123Z,23.80
2022-12-17T18:53:59.520Z,20.25
2022-12-17T18:58:01.599Z,22.45
2022-12-17T19:02:03.698Z,19.42
2022-12-17T19:06:06.107Z,20.33
2022-12-17T19:10:08.707Z,22.73
2022-12-17T19:14:10.715Z,22.70
2022-12-17T19:18:12.689Z,23.50
2022-12-17T19:22:15.701Z,17.95
2022-12-17T19:26:20.210Z,16.90
2022-12-17T19:30:22.381Z,25.58
2022-12-17T19:34:24.430Z,33.25
2022-12-17T19:38:26.474Z,32.03
2022-12-17T19:42:36.852Z,31.17
2022-12-17T19:46:40.135Z,31.77
2022-12-17T19:50:42.712Z,37.08
2022-12-17T19:54:44.834Z,32.90
2022-12-17T19:58:50.639Z,35.53
2022-12-17T20:02:52.706Z,36.10
2022-12-17T20:06:54.770Z,33.08
2022-12-17T20:10:57.702Z,35.95
2022-12-17T20:14:59.810Z,34.40
2022-12-17T20:19:03.793Z,33.00
2022-12-17T20:23:05.818Z,32.53
2022-12-17T20:27:08.034Z,32.10
2022-12-17T20:31:11.426Z,40.45
2022-12-17T20:35:13.703Z,42.83
2022-12-17T20:39:16.076Z,55.60
2022-12-17T20:43:18.091Z,54.85
2022-12-17T20:47:20.175Z,59.55
2022-12-17T20:51:26.073Z,55.35
2022-12-17T20:55:31.257Z,71.47
2022-12-17T20:59:33.495Z,106.47
2022-12-17T21:03:36.215Z,90.65
2022-12-17T21:07:38.289Z,82.63
2022-12-17T21:11:42.289Z,76.25
2022-12-17T21:15:50.797Z,64.22
2022-12-17T21:19:52.886Z,62.75
2022-12-17T21:23:55.312Z,53.38
2022-12-17T21:27:57.366Z,49.22
2022-12-17T21:31:59.702Z,37.95
2022-12-17T21:36:07.506Z,34.05
2022-12-17T21:40:10.965Z,30.40
2022-12-17T21:44:14.089Z,20.05
2022-12-17T21:48:17.653Z,39.85
2022-12-17T21:52:19.857Z,40.17
2022-12-17T21:56:22.657Z,36.08
2022-12-17T22:00:25.192Z,24.55
2022-12-17T22:04:27.301Z,21.90
2022-12-17T22:08:29.366Z,23.80
2022-12-17T22:12:50.292Z,30.33
2022-12-17T22:16:52.284Z,24.02
2022-12-17T22:21:01.275Z,20.13
2022-12-17T22:25:08.159Z,24.17
2022-12-17T22:29:12.546Z,30.85
2022-12-17T22:33:49.416Z,21.77
2022-12-17T22:40:47.655Z,23.83
2022-12-17T22:44:46.625Z,27.02
2022-12-17T22:46:40.312Z,23.25
2022-12-17T22:50:52.689Z,26.00
2022-12-17T22:55:05.158Z,21.52
2022-12-17T22:59:07.692Z,19.88
2022-12-17T23:03:10.151Z,22.85
2022-12-17T23:07:12.263Z,20.05
2022-12-17T23:11:17.992Z,19.83
2022-12-17T23:15:37.255Z,19.07
2022-12-17T23:19:39.275Z,22.33
2022-12-17T23:23:42.360Z,23.48
2022-12-17T23:27:45.662Z,21.73
2022-12-17T23:31:48.034Z,23.67
2022-12-17T23:35:50.128Z,24.73
2022-12-17T23:39:52.166Z,21.95
2022-12-17T23:43:54.577Z,21.13
2022-12-17T23:47:57.499Z,20.27
2022-12-17T23:51:59.648Z,25.83
2022-12-17T23:56:10.465Z,24.17
